createdAt,value
2022-10-14T00:01:21.495Z,20.00
2022-10-14T00:03:49.162Z,20.00
2022-10-14T00:06:22.826Z,20.00
2022-10-14T00:08:51.035Z,20.00
2022-10-14T00:11:22.609Z,20.00
2022-10-14T00:13:50.608Z,19.90
2022-10-14T00:16:21.739Z,19.90
2022-10-14T00:18:49.296Z,19.90
2022-10-14T00:21:17.394Z,19.90
2022-10-14T00:23:45.422Z,19.90
2022-10-14T00:26:24.682Z,19.90
2022-10-14T00:28:52.939Z,19.90
2022-10-14T00:31:21.201Z,19.90
2022-10-14T00:33:49.106Z,19.90
2022-10-14T00:36:19.202Z,19.90
2022-10-14T00:38:47.719Z,19.90
2022-10-14T00:41:22.513Z,19.90
2022-10-14T00:44:15.643Z,19.90
2022-10-14T00:46:48.294Z,19.90
2022-10-14T00:49:20.506Z,19.90
2022-10-14T00:52:01.013Z,19.90
2022-10-14T00:54:37.553Z,19.80
2022-10-14T00:57:05.736Z,19.80
2022-10-14T00:59:34.110Z,19.80
2022-10-14T01:02:01.779Z,19.80
2022-10-14T01:04:29.527Z,19.80
2022-10-14T01:07:09.644Z,19.80
2022-10-14T01:10:01.109Z,19.80
2022-10-14T01:12:41.723Z,19.80
2022-10-14T01:15:48.591Z,19.80
2022-10-14T01:18:43.495Z,19.80
2022-10-14T01:21:18.457Z,19.80
2022-10-14T01:24:15.104Z,19.80
2022-10-14T01:26:54.242Z,19.80
2022-10-14T01:29:56.531Z,19.80
2022-10-14T01:32:45.244Z,19.80
2022-10-14T01:35:21.532Z,19.70
2022-10-14T01:38:01.191Z,19.70
2022-10-14T01:41:00.347Z,19.70
2022-10-14T01:43:30.019Z,19.70
2022-10-14T01:46:01.342Z,19.70
2022-10-14T01:48:37.321Z,19.70
2022-10-14T01:51:11.460Z,19.70
2022-10-14T01:53:43.046Z,19.70
2022-10-14T01:56:12.756Z,19.70
2022-10-14T01:58:41.160Z,19.70
2022-10-14T02:01:09.952Z,19.70
2022-10-14T02:03:46.862Z,19.70
2022-10-14T02:06:33.948Z,19.60
2022-10-14T02:09:30.984Z,19.60
2022-10-14T02:12:16.164Z,19.60
2022-10-14T02:15:23.014Z,19.60
2022-10-14T02:17:56.418Z,19.60
2022-10-14T02:20:41.204Z,19.60
2022-10-14T02:23:21.968Z,19.60
2022-10-14T02:25:51.399Z,19.60
2022-10-14T02:28:21.631Z,19.60
2022-10-14T02:31:00.477Z,19.60
2022-10-14T02:33:34.566Z,19.60
2022-10-14T02:36:04.123Z,19.60
2022-10-14T02:38:32.047Z,19.60
2022-10-14T02:41:03.269Z,19.60
2022-10-14T02:43:30.555Z,19.60
2022-10-14T02:46:00.811Z,19.50
2022-10-14T02:48:28.449Z,19.50
2022-10-14T02:50:55.933Z,19.50
2022-10-14T02:53:23.468Z,19.50
2022-10-14T02:55:50.964Z,19.50
2022-10-14T02:58:18.412Z,19.50
2022-10-14T03:00:45.849Z,19.50
2022-10-14T03:03:13.674Z,19.50
2022-10-14T03:05:41.097Z,19.50
2022-10-14T03:08:12.939Z,19.50
2022-10-14T03:10:41.089Z,19.50
2022-10-14T03:13:11.235Z,19.40
2022-10-14T03:15:43.408Z,19.50
2022-10-14T03:18:12.105Z,19.40
2022-10-14T03:20:46.565Z,19.50
2022-10-14T03:23:19.106Z,19.50
2022-10-14T03:25:49.939Z,19.40
2022-10-14T03:28:25.661Z,19.40
2022-10-14T03:31:01.028Z,19.40
2022-10-14T03:33:43.927Z,19.40
2022-10-14T03:36:18.427Z,19.40
2022-10-14T03:38:57.345Z,19.40
2022-10-14T03:41:37.739Z,19.40
2022-10-14T03:44:06.604Z,19.40
2022-10-14T03:46:36.315Z,19.40
2022-10-14T03:49:04.116Z,19.40
2022-10-14T03:51:33.053Z,19.40
2022-10-14T03:54:18.001Z,19.40
2022-10-14T03:56:45.745Z,19.30
2022-10-14T03:59:15.415Z,19.30
2022-10-14T04:01:48.236Z,19.30
2022-10-14T04:04:25.027Z,19.30
2022-10-14T04:06:52.536Z,19.30
2022-10-14T04:09:22.147Z,19.30
2022-10-14T04:11:49.627Z,19.30
2022-10-14T04:14:37.347Z,19.30
2022-10-14T04:17:04.741Z,19.30
2022-10-14T04:19:32.291Z,19.30
2022-10-14T04:22:01.875Z,19.30
2022-10-14T04:24:29.526Z,19.30
2022-10-14T04:26:59.640Z,19.30
2022-10-14T04:29:42.929Z,19.30
2022-10-14T04:32:17.947Z,19.20
2022-10-14T04:34:46.141Z,19.20
2022-10-14T04:37:17.152Z,19.20
2022-10-14T04:40:07.943Z,19.20
2022-10-14T04:42:42.148Z,19.20
2022-10-14T04:45:19.166Z,19.20
2022-10-14T04:47:52.593Z,19.20
2022-10-14T04:50:23.641Z,19.20
2022-10-14T04:53:13.486Z,19.20
2022-10-14T04:55:54.899Z,19.20
2022-10-14T04:58:22.349Z,19.10
2022-10-14T05:00:50.156Z,19.10
2022-10-14T05:03:28.247Z,19.10
2022-10-14T05:05:56.604Z,19.10
2022-10-14T05:08:24.184Z,19.10
2022-10-14T05:10:54.906Z,19.10
2022-10-14T05:13:37.783Z,19.10
2022-10-14T05:16:09.185Z,19.10
2022-10-14T05:18:38.202Z,19.10
2022-10-14T05:21:09.351Z,19.10
2022-10-14T05:24:08.876Z,19.10
2022-10-14T05:26:39.119Z,19.10
2022-10-14T05:29:13.174Z,19.10
2022-10-14T05:31:41.321Z,19.10
2022-10-14T05:34:27.478Z,19.10
2022-10-14T05:36:56.517Z,19.10
2022-10-14T05:39:24.132Z,19.00
2022-10-14T05:41:51.518Z,19.10
2022-10-14T05:44:23.659Z,19.00
2022-10-14T05:46:51.185Z,19.00
2022-10-14T05:49:19.123Z,19.00
2022-10-14T05:51:46.844Z,19.00
2022-10-14T05:54:20.583Z,19.00
2022-10-14T05:56:49.707Z,19.00
2022-10-14T05:59:17.075Z,19.10
2022-10-14T06:01:44.593Z,19.00
2022-10-14T06:04:21.035Z,19.00
2022-10-14T06:06:48.681Z,19.00
2022-10-14T06:09:16.770Z,19.00
2022-10-14T06:11:44.759Z,19.00
2022-10-14T06:14:13.185Z,19.00
2022-10-14T06:16:41.588Z,19.00
2022-10-14T06:19:09.083Z,19.00
2022-10-14T06:21:36.538Z,19.00
2022-10-14T06:24:04.172Z,19.00
2022-10-14T06:26:31.685Z,18.90
2022-10-14T06:28:59.102Z,19.00
2022-10-14T06:31:31.258Z,19.00
2022-10-14T06:34:00.223Z,19.00
2022-10-14T06:36:27.722Z,19.00
2022-10-14T06:38:55.148Z,19.00
2022-10-14T06:41:22.632Z,19.00
2022-10-14T06:43:50.163Z,19.00
2022-10-14T06:46:17.538Z,19.00
2022-10-14T06:48:50.055Z,19.00
2022-10-14T06:51:18.163Z,19.00
2022-10-14T06:53:45.564Z,19.00
2022-10-14T06:56:13.146Z,19.00
2022-10-14T06:58:40.560Z,19.00
2022-10-14T07:01:09.051Z,19.00
2022-10-14T07:03:39.212Z,19.00
2022-10-14T07:06:08.457Z,19.10
2022-10-14T07:08:35.962Z,19.10
2022-10-14T07:11:04.045Z,19.00
2022-10-14T07:13:31.644Z,19.10
2022-10-14T07:15:59.591Z,19.10
2022-10-14T07:18:27.407Z,19.10
2022-10-14T07:20:54.933Z,19.10
2022-10-14T07:23:22.619Z,19.10
2022-10-14T07:25:50.057Z,19.10
2022-10-14T07:28:17.443Z,19.20
2022-10-14T07:30:44.851Z,19.20
2022-10-14T07:33:12.223Z,19.30
2022-10-14T07:35:39.675Z,19.40
2022-10-14T07:38:07.048Z,19.50
2022-10-14T07:40:34.543Z,19.60
2022-10-14T07:43:01.976Z,19.80
2022-10-14T07:45:35.284Z,19.90
2022-10-14T07:48:02.767Z,20.00
2022-10-14T07:50:30.223Z,20.10
2022-10-14T07:53:01.449Z,20.20
2022-10-14T07:55:29.223Z,20.30
2022-10-14T07:57:56.620Z,20.40
2022-10-14T08:00:24.129Z,20.50
2022-10-14T08:02:51.555Z,20.60
2022-10-14T08:05:37.206Z,20.70
2022-10-14T08:08:05.468Z,20.80
2022-10-14T08:10:32.911Z,20.90
2022-10-14T08:13:00.404Z,21.00
2022-10-14T08:15:29.998Z,21.10
2022-10-14T08:17:57.573Z,21.20
2022-10-14T08:20:25.035Z,21.30
2022-10-14T08:22:52.548Z,21.30
2022-10-14T08:25:20.018Z,21.40
2022-10-14T08:27:54.290Z,21.50
2022-10-14T08:30:21.818Z,21.60
2022-10-14T08:32:49.318Z,21.70
2022-10-14T08:35:16.763Z,21.80
2022-10-14T08:37:44.143Z,22.00
2022-10-14T08:40:17.356Z,22.10
2022-10-14T08:43:06.084Z,22.10
2022-10-14T08:45:38.493Z,22.30
2022-10-14T08:48:14.097Z,22.30
2022-10-14T08:50:48.809Z,22.50
2022-10-14T08:53:21.799Z,22.50
2022-10-14T08:55:53.208Z,22.60
2022-10-14T08:58:38.735Z,22.70
2022-10-14T09:01:34.512Z,22.80
2022-10-14T09:04:13.218Z,22.90
2022-10-14T09:06:44.863Z,22.90
2022-10-14T09:09:30.743Z,22.90
2022-10-14T09:12:06.379Z,23.00
2022-10-14T09:14:39.918Z,23.00
2022-10-14T09:17:14.089Z,23.00
2022-10-14T09:20:02.318Z,23.10
2022-10-14T09:22:29.860Z,23.10
2022-10-14T09:24:59.265Z,23.20
2022-10-14T09:27:28.404Z,23.30
2022-10-14T09:30:04.631Z,23.40
2022-10-14T09:32:34.970Z,23.50
2022-10-14T09:35:04.433Z,23.60
2022-10-14T09:37:34.459Z,23.60
2022-10-14T09:40:17.377Z,23.60
2022-10-14T09:43:18.698Z,23.70
2022-10-14T09:45:58.612Z,23.80
2022-10-14T09:48:33.907Z,23.80
2022-10-14T09:51:05.234Z,23.80
2022-10-14T09:53:45.444Z,23.80
2022-10-14T09:56:15.505Z,23.80
2022-10-14T09:58:46.933Z,23.80
2022-10-14T10:01:23.403Z,23.70
2022-10-14T10:03:52.334Z,23.70
2022-10-14T10:06:25.970Z,23.60
2022-10-14T10:08:53.673Z,23.60
2022-10-14T10:11:37.801Z,23.60
2022-10-14T10:14:22.491Z,23.60
2022-10-14T10:17:11.210Z,23.50
2022-10-14T10:19:43.448Z,23.50
2022-10-14T10:25:12.798Z,23.40
2022-10-14T10:27:45.855Z,23.40
2022-10-14T10:30:25.513Z,23.40
2022-10-14T10:33:14.444Z,23.40
2022-10-14T10:36:03.520Z,23.30
2022-10-14T10:38:45.619Z,23.30
2022-10-14T10:41:18.752Z,23.30
2022-10-14T10:43:58.407Z,23.20
2022-10-14T10:46:41.109Z,23.20
2022-10-14T10:49:21.361Z,23.20
2022-10-14T10:52:17.354Z,23.10
2022-10-14T10:54:56.562Z,23.10
2022-10-14T10:57:25.114Z,23.00
2022-10-14T10:59:58.747Z,23.00
2022-10-14T11:02:44.469Z,23.00
2022-10-14T11:05:18.651Z,23.00
2022-10-14T11:09:04.427Z,22.90
2022-10-14T11:12:05.816Z,22.90
2022-10-14T11:14:34.749Z,22.90
2022-10-14T11:17:05.356Z,22.80
2022-10-14T11:19:43.604Z,22.80
2022-10-14T11:22:29.049Z,22.80
2022-10-14T11:25:19.077Z,22.80
2022-10-14T11:28:01.211Z,22.70
2022-10-14T11:30:46.689Z,22.70
2022-10-14T11:33:40.084Z,22.70
2022-10-14T11:36:39.116Z,22.70
2022-10-14T11:39:33.314Z,22.60
2022-10-14T11:42:24.918Z,22.60
2022-10-14T11:45:27.609Z,22.50
2022-10-14T11:48:14.617Z,22.50
2022-10-14T11:50:48.230Z,22.50
2022-10-14T11:53:40.440Z,22.40
2022-10-14T11:56:18.369Z,22.40
2022-10-14T11:58:47.998Z,22.40
2022-10-14T12:01:18.865Z,22.40
2022-10-14T12:04:01.211Z,22.40
2022-10-14T12:06:42.085Z,22.30
2022-10-14T12:09:18.441Z,22.30
2022-10-14T12:11:51.446Z,22.30
2022-10-14T12:14:23.331Z,22.30
2022-10-14T12:16:51.976Z,22.30
2022-10-14T12:19:27.510Z,22.30
2022-10-14T12:22:14.218Z,22.20
2022-10-14T12:24:51.012Z,22.20
2022-10-14T12:27:21.421Z,22.20
2022-10-14T12:29:51.485Z,22.20
2022-10-14T12:32:24.861Z,22.20
2022-10-14T12:34:56.866Z,22.20
2022-10-14T12:37:38.144Z,22.20
2022-10-14T12:40:06.966Z,22.20
2022-10-14T12:42:44.253Z,22.20
2022-10-14T12:45:20.424Z,22.10
2022-10-14T12:48:01.066Z,22.10
2022-10-14T12:50:32.533Z,22.10
2022-10-14T12:53:03.238Z,22.10
2022-10-14T12:55:47.676Z,22.10
2022-10-14T12:58:28.684Z,22.10
2022-10-14T13:01:24.268Z,22.10
2022-10-14T13:06:42.584Z,22.00
2022-10-14T13:09:13.084Z,22.00
2022-10-14T13:11:42.244Z,22.00
2022-10-14T13:14:27.462Z,22.00
2022-10-14T13:16:57.653Z,21.90
2022-10-14T13:19:34.273Z,22.00
2022-10-14T13:22:28.434Z,22.00
2022-10-14T13:25:15.058Z,21.90
2022-10-14T13:28:16.167Z,21.90
2022-10-14T13:31:12.720Z,21.90
2022-10-14T13:34:11.493Z,21.90
2022-10-14T13:36:47.952Z,21.90
2022-10-14T13:39:15.406Z,21.90
2022-10-14T13:41:45.470Z,21.90
2022-10-14T13:44:13.134Z,21.90
2022-10-14T13:46:45.753Z,21.90
2022-10-14T13:49:20.505Z,21.80
2022-10-14T13:51:55.638Z,21.80
2022-10-14T13:54:24.165Z,21.80
2022-10-14T13:57:47.975Z,21.80
2022-10-14T14:02:54.504Z,21.80
2022-10-14T14:11:15.761Z,21.80
2022-10-14T14:13:59.878Z,21.80
2022-10-14T14:16:41.962Z,21.80
2022-10-14T14:19:27.056Z,21.80
2022-10-14T14:22:07.338Z,21.90
2022-10-14T14:24:35.020Z,21.80
2022-10-14T14:27:03.241Z,21.80
2022-10-14T14:29:33.460Z,21.80
2022-10-14T14:32:07.173Z,21.80
2022-10-14T14:34:38.884Z,21.80
2022-10-14T14:40:30.270Z,21.80
2022-10-14T14:43:04.183Z,21.80
2022-10-14T14:45:40.966Z,21.80
2022-10-14T14:48:12.043Z,21.80
2022-10-14T14:50:43.258Z,21.80
2022-10-14T14:53:20.856Z,21.90
2022-10-14T14:55:54.772Z,21.80
2022-10-14T14:58:54.684Z,21.90
2022-10-14T15:01:24.585Z,21.80
2022-10-14T15:04:13.718Z,21.90
2022-10-14T15:07:02.453Z,21.80
2022-10-14T15:09:43.153Z,21.80
2022-10-14T15:12:22.481Z,21.80
2022-10-14T15:14:51.099Z,21.80
2022-10-14T15:17:46.172Z,21.80
2022-10-14T15:20:30.287Z,21.80
2022-10-14T15:22:57.978Z,21.80
2022-10-14T15:25:32.860Z,21.80
2022-10-14T15:28:02.068Z,21.80
2022-10-14T15:30:39.966Z,21.70
2022-10-14T15:33:17.108Z,21.70
2022-10-14T15:35:46.277Z,21.70
2022-10-14T15:38:17.488Z,21.70
2022-10-14T15:40:47.108Z,21.70
2022-10-14T15:43:19.169Z,21.70
2022-10-14T15:46:11.265Z,21.70
2022-10-14T15:48:50.683Z,21.70
2022-10-14T15:51:23.668Z,21.60
2022-10-14T15:53:52.089Z,21.60
2022-10-14T15:56:21.292Z,21.60
2022-10-14T15:58:49.509Z,21.60
2022-10-14T16:01:22.411Z,21.60
2022-10-14T16:03:55.305Z,21.60
2022-10-14T16:06:24.671Z,21.60
2022-10-14T16:08:53.222Z,21.60
2022-10-14T16:11:25.658Z,21.60
2022-10-14T16:13:53.149Z,21.60
2022-10-14T16:16:44.256Z,21.60
2022-10-14T16:19:11.640Z,21.60
2022-10-14T16:21:40.451Z,21.60
2022-10-14T16:26:44.469Z,21.60
2022-10-14T16:29:11.840Z,21.60
2022-10-14T16:31:39.540Z,21.60
2022-10-14T16:34:06.924Z,21.60
2022-10-14T16:36:34.377Z,21.60
2022-10-14T16:39:03.589Z,21.60
2022-10-14T16:41:31.204Z,21.60
2022-10-14T16:43:58.633Z,21.60
2022-10-14T16:46:45.998Z,21.60
2022-10-14T16:49:14.479Z,21.60
2022-10-14T16:51:43.134Z,21.60
2022-10-14T16:54:11.284Z,21.60
2022-10-14T16:56:53.669Z,21.60
2022-10-14T16:59:22.538Z,21.60
2022-10-14T17:01:51.247Z,21.60
2022-10-14T17:04:22.389Z,21.50
2022-10-14T17:06:58.861Z,21.60
2022-10-14T17:09:27.498Z,21.60
2022-10-14T17:11:58.877Z,21.60
2022-10-14T17:14:28.164Z,21.60
2022-10-14T17:16:55.657Z,21.60
2022-10-14T17:19:24.068Z,21.60
2022-10-14T17:21:51.559Z,21.60
2022-10-14T17:24:19.070Z,21.60
2022-10-14T17:26:46.886Z,21.60
2022-10-14T17:29:14.557Z,21.60
2022-10-14T17:31:42.052Z,21.60
2022-10-14T17:34:10.211Z,21.60
2022-10-14T17:36:38.998Z,21.60
2022-10-14T17:39:06.523Z,21.60
2022-10-14T17:41:34.215Z,21.60
2022-10-14T17:44:01.682Z,21.60
2022-10-14T17:46:31.560Z,21.60
2022-10-14T17:49:01.370Z,21.60
2022-10-14T17:51:29.067Z,21.60
2022-10-14T17:54:02.003Z,21.60
2022-10-14T17:56:35.014Z,21.60
2022-10-14T17:59:05.017Z,21.60
2022-10-14T18:01:37.894Z,21.50
2022-10-14T18:06:54.312Z,21.60
2022-10-14T18:09:21.878Z,21.50
2022-10-14T18:14:41.426Z,21.50
2022-10-14T18:17:11.099Z,21.50
2022-10-14T18:19:41.732Z,21.50
2022-10-14T18:22:11.308Z,21.50
2022-10-14T18:24:39.520Z,21.50
2022-10-14T18:27:07.339Z,21.50
2022-10-14T18:29:35.381Z,21.50
2022-10-14T18:32:03.081Z,21.50
2022-10-14T18:34:30.921Z,21.50
2022-10-14T18:36:58.331Z,21.50
2022-10-14T18:39:25.862Z,21.50
2022-10-14T18:41:53.982Z,21.50
2022-10-14T18:44:21.387Z,21.50
2022-10-14T18:46:48.958Z,21.50
2022-10-14T18:49:16.505Z,21.60
2022-10-14T18:51:44.091Z,21.60
2022-10-14T18:54:20.595Z,21.60
2022-10-14T18:56:48.308Z,21.60
2022-10-14T18:59:21.559Z,21.50
2022-10-14T19:01:53.464Z,21.60
2022-10-14T19:04:23.409Z,21.60
2022-10-14T19:06:51.203Z,21.50
2022-10-14T19:09:21.701Z,21.50
2022-10-14T19:11:52.728Z,21.50
2022-10-14T19:14:20.872Z,21.50
2022-10-14T19:16:49.830Z,21.50
2022-10-14T19:19:19.846Z,21.50
2022-10-14T19:21:57.611Z,21.50
2022-10-14T19:24:27.038Z,21.50
2022-10-14T19:26:55.986Z,21.50
2022-10-14T19:29:23.373Z,21.50
2022-10-14T19:31:54.724Z,21.50
2022-10-14T19:34:25.821Z,21.50
2022-10-14T19:36:54.800Z,21.50
2022-10-14T19:39:22.168Z,21.50
2022-10-14T19:41:50.992Z,21.50
2022-10-14T19:44:18.415Z,21.50
2022-10-14T19:46:46.364Z,21.50
2022-10-14T19:49:16.189Z,21.50
2022-10-14T19:51:44.225Z,21.50
2022-10-14T19:54:12.685Z,21.50
2022-10-14T19:56:40.310Z,21.50
2022-10-14T19:59:08.685Z,21.50
2022-10-14T20:01:36.273Z,21.50
2022-10-14T20:04:03.936Z,21.50
2022-10-14T20:06:34.455Z,21.50
2022-10-14T20:09:02.525Z,21.50
2022-10-14T20:11:30.414Z,21.50
2022-10-14T20:13:58.116Z,21.50
2022-10-14T20:16:26.501Z,21.40
2022-10-14T20:18:53.905Z,21.50
2022-10-14T20:21:21.334Z,21.40
2022-10-14T20:23:48.695Z,21.40
2022-10-14T20:26:20.104Z,21.40
2022-10-14T20:28:48.066Z,21.40
2022-10-14T20:31:19.704Z,21.40
2022-10-14T20:33:47.134Z,21.30
2022-10-14T20:36:17.878Z,21.30
2022-10-14T20:38:45.767Z,21.30
2022-10-14T20:41:22.395Z,21.30
2022-10-14T20:43:50.706Z,21.30
2022-10-14T20:46:18.607Z,21.30
2022-10-14T20:48:46.688Z,21.30
2022-10-14T20:51:20.519Z,21.20
2022-10-14T20:53:47.891Z,21.20
2022-10-14T20:56:15.825Z,21.20
2022-10-14T20:58:43.618Z,21.20
2022-10-14T21:01:14.740Z,21.20
2022-10-14T21:03:44.062Z,21.20
2022-10-14T21:06:14.795Z,21.20
2022-10-14T21:08:42.350Z,21.10
2022-10-14T21:11:15.050Z,21.20
2022-10-14T21:14:01.164Z,21.10
2022-10-14T21:16:34.170Z,21.10
2022-10-14T21:19:09.647Z,21.10
2022-10-14T21:21:42.790Z,21.00
2022-10-14T21:24:13.829Z,21.10
2022-10-14T21:26:41.269Z,21.00
2022-10-14T21:29:08.685Z,21.00
2022-10-14T21:31:36.305Z,21.00
2022-10-14T21:34:06.470Z,21.00
2022-10-14T21:36:38.232Z,21.00
2022-10-14T21:39:11.050Z,21.00
2022-10-14T21:41:39.365Z,21.00
2022-10-14T21:44:07.796Z,20.90
2022-10-14T21:46:35.796Z,21.00
2022-10-14T21:49:03.251Z,21.00
2022-10-14T21:51:31.145Z,20.90
2022-10-14T21:53:59.101Z,20.90
2022-10-14T21:56:27.181Z,20.90
2022-10-14T21:58:55.678Z,20.90
2022-10-14T22:01:27.972Z,20.90
2022-10-14T22:04:06.679Z,20.90
2022-10-14T22:06:36.185Z,20.90
2022-10-14T22:09:06.254Z,20.90
2022-10-14T22:11:37.184Z,20.90
2022-10-14T22:14:06.721Z,20.90
2022-10-14T22:16:35.527Z,20.90
2022-10-14T22:19:06.198Z,20.90
2022-10-14T22:21:35.494Z,20.90
2022-10-14T22:24:03.270Z,20.90
2022-10-14T22:26:31.412Z,20.80
2022-10-14T22:29:04.459Z,20.80
2022-10-14T22:31:33.108Z,20.80
2022-10-14T22:34:02.000Z,20.80
2022-10-14T22:36:30.424Z,20.80
2022-10-14T22:38:59.126Z,20.80
2022-10-14T22:41:30.970Z,20.80
2022-10-14T22:44:01.561Z,20.80
2022-10-14T22:46:31.578Z,20.80
2022-10-14T22:49:00.909Z,20.80
2022-10-14T22:51:32.091Z,20.80
2022-10-14T22:53:59.892Z,20.80
2022-10-14T22:56:29.373Z,20.70
2022-10-14T22:59:01.297Z,20.70
2022-10-14T23:01:30.103Z,20.70
2022-10-14T23:03:58.413Z,20.70
2022-10-14T23:06:26.766Z,20.70
2022-10-14T23:08:57.454Z,20.70
2022-10-14T23:11:25.619Z,20.70
2022-10-14T23:13:53.843Z,20.70
2022-10-14T23:16:24.352Z,20.70
2022-10-14T23:18:53.218Z,20.70
2022-10-14T23:21:32.125Z,20.70
2022-10-14T23:24:01.784Z,20.70
2022-10-14T23:26:31.808Z,20.70
2022-10-14T23:29:00.851Z,20.60
2022-10-14T23:31:31.831Z,20.60
2022-10-14T23:34:01.415Z,20.60
2022-10-14T23:36:30.216Z,20.60
2022-10-14T23:38:59.172Z,20.60
2022-10-14T23:41:26.715Z,20.60
2022-10-14T23:43:54.277Z,20.60
2022-10-14T23:46:23.119Z,20.60
2022-10-14T23:49:01.211Z,20.60
2022-10-14T23:51:35.830Z,20.60
2022-10-14T23:54:03.436Z,20.60
2022-10-14T23:56:30.835Z,20.60
2022-10-14T23:58:58.228Z,20.60
